sensor_id;sensor_type;location;lat;lon;timestamp;temperature;humidity
23471;DHT22;11908;50.806;4.424;2023-03-14T00:01:35;11.60;99.90
23471;DHT22;11908;50.806;4.424;2023-03-14T00:04:03;11.60;99.90
23471;DHT22;11908;50.806;4.424;2023-03-14T00:06:29;11.60;99.90
23471;DHT22;11908;50.806;4.424;2023-03-14T00:08:57;11.60;99.90
23471;DHT22;11908;50.806;4.424;2023-03-14T00:11:23;11.50;99.90
23471;DHT22;11908;50.806;4.424;2023-03-14T00:13:49;11.50;99.90
23471;DHT22;11908;50.806;4.424;2023-03-14T00:16:15;11.50;99.90
23471;DHT22;11908;50.806;4.424;2023-03-14T00:18:41;11.40;99.90
23471;DHT22;11908;50.806;4.424;2023-03-14T00:21:08;11.30;99.90
23471;DHT22;11908;50.806;4.424;2023-03-14T00:23:35;11.30;99.90
23471;DHT22;11908;50.806;4.424;2023-03-14T00:26:03;11.30;99.90
23471;DHT22;11908;50.806;4.424;2023-03-14T00:28:29;11.30;99.90
23471;DHT22;11908;50.806;4.424;2023-03-14T00:30:56;11.30;99.90
23471;DHT22;11908;50.806;4.424;2023-03-14T00:33:22;11.30;99.90
23471;DHT22;11908;50.806;4.424;2023-03-14T00:35:56;11.30;99.90
23471;DHT22;11908;50.806;4.424;2023-03-14T00:38:22;11.30;99.90
23471;DHT22;11908;50.806;4.424;2023-03-14T00:40:50;11.30;99.90
23471;DHT22;11908;50.806;4.424;2023-03-14T00:43:15;11.30;99.90
23471;DHT22;11908;50.806;4.424;2023-03-14T00:45:41;11.40;99.90
23471;DHT22;11908;50.806;4.424;2023-03-14T00:48:07;11.50;99.90
23471;DHT22;11908;50.806;4.424;2023-03-14T00:50:33;11.50;99.90
23471;DHT22;11908;50.806;4.424;2023-03-14T00:52:58;11.40;99.90
23471;DHT22;11908;50.806;4.424;2023-03-14T00:55:24;11.40;99.90
23471;DHT22;11908;50.806;4.424;2023-03-14T00:57:50;11.40;99.90
23471;DHT22;11908;50.806;4.424;2023-03-14T01:00:17;11.50;99.90
23471;DHT22;11908;50.806;4.424;2023-03-14T01:02:43;11.50;99.90
23471;DHT22;11908;50.806;4.424;2023-03-14T01:05:09;11.40;99.90
23471;DHT22;11908;50.806;4.424;2023-03-14T01:07:36;11.40;99.90
23471;DHT22;11908;50.806;4.424;2023-03-14T01:10:03;11.50;99.90
23471;DHT22;11908;50.806;4.424;2023-03-14T01:12:29;11.50;99.90
23471;DHT22;11908;50.806;4.424;2023-03-14T01:14:55;11.50;99.90
23471;DHT22;11908;50.806;4.424;2023-03-14T01:17:20;11.50;99.90
23471;DHT22;11908;50.806;4.424;2023-03-14T01:19:46;11.50;99.90
23471;DHT22;11908;50.806;4.424;2023-03-14T01:22:12;11.50;99.90
23471;DHT22;11908;50.806;4.424;2023-03-14T01:24:38;11.50;99.90
23471;DHT22;11908;50.806;4.424;2023-03-14T01:27:04;11.40;99.90
23471;DHT22;11908;50.806;4.424;2023-03-14T01:29:29;11.40;99.90
23471;DHT22;11908;50.806;4.424;2023-03-14T01:31:55;11.30;99.90
23471;DHT22;11908;50.806;4.424;2023-03-14T01:34:20;11.20;99.90
23471;DHT22;11908;50.806;4.424;2023-03-14T01:36:46;11.20;99.90
23471;DHT22;11908;50.806;4.424;2023-03-14T01:39:12;11.10;99.90
23471;DHT22;11908;50.806;4.424;2023-03-14T01:41:39;11.20;99.90
23471;DHT22;11908;50.806;4.424;2023-03-14T01:44:08;11.10;99.90
23471;DHT22;11908;50.806;4.424;2023-03-14T01:46:43;11.00;99.90
23471;DHT22;11908;50.806;4.424;2023-03-14T01:51:49;11.00;99.90
23471;DHT22;11908;50.806;4.424;2023-03-14T01:54:28;10.90;99.90
23471;DHT22;11908;50.806;4.424;2023-03-14T01:57:41;10.80;99.90
23471;DHT22;11908;50.806;4.424;2023-03-14T01:59:54;10.70;99.90
23471;DHT22;11908;50.806;4.424;2023-03-14T02:02:22;10.60;99.90
23471;DHT22;11908;50.806;4.424;2023-03-14T02:04:49;10.40;99.90
23471;DHT22;11908;50.806;4.424;2023-03-14T02:07:38;10.40;99.90
23471;DHT22;11908;50.806;4.424;2023-03-14T02:10:06;10.30;99.90
23471;DHT22;11908;50.806;4.424;2023-03-14T02:12:33;10.30;99.90
23471;DHT22;11908;50.806;4.424;2023-03-14T02:14:59;10.30;99.90
23471;DHT22;11908;50.806;4.424;2023-03-14T02:17:25;10.30;99.90
23471;DHT22;11908;50.806;4.424;2023-03-14T02:22:35;10.20;99.90
23471;DHT22;11908;50.806;4.424;2023-03-14T02:25:16;10.20;99.90
23471;DHT22;11908;50.806;4.424;2023-03-14T02:27:43;10.20;99.90
23471;DHT22;11908;50.806;4.424;2023-03-14T02:30:28;10.20;99.90
23471;DHT22;11908;50.806;4.424;2023-03-14T02:33:06;10.20;99.90
23471;DHT22;11908;50.806;4.424;2023-03-14T02:35:54;10.20;99.90
23471;DHT22;11908;50.806;4.424;2023-03-14T02:38:26;10.30;99.90
23471;DHT22;11908;50.806;4.424;2023-03-14T02:40:54;10.40;99.90
23471;DHT22;11908;50.806;4.424;2023-03-14T02:43:20;10.30;99.90
23471;DHT22;11908;50.806;4.424;2023-03-14T02:45:47;10.30;99.90
23471;DHT22;11908;50.806;4.424;2023-03-14T02:48:24;10.30;99.90
23471;DHT22;11908;50.806;4.424;2023-03-14T02:50:54;10.30;99.90
23471;DHT22;11908;50.806;4.424;2023-03-14T02:53:30;10.40;99.90
23471;DHT22;11908;50.806;4.424;2023-03-14T02:55:57;10.30;99.90
23471;DHT22;11908;50.806;4.424;2023-03-14T02:58:22;10.20;99.90
23471;DHT22;11908;50.806;4.424;2023-03-14T03:00:48;10.30;99.90
23471;DHT22;11908;50.806;4.424;2023-03-14T03:03:14;10.30;99.90
23471;DHT22;11908;50.806;4.424;2023-03-14T03:05:40;10.30;99.90
23471;DHT22;11908;50.806;4.424;2023-03-14T03:08:08;10.40;99.90
23471;DHT22;11908;50.806;4.424;2023-03-14T03:10:34;10.40;99.90
23471;DHT22;11908;50.806;4.424;2023-03-14T03:12:59;10.50;99.90
23471;DHT22;11908;50.806;4.424;2023-03-14T03:15:25;10.40;99.90
23471;DHT22;11908;50.806;4.424;2023-03-14T03:17:51;10.40;99.90
23471;DHT22;11908;50.806;4.424;2023-03-14T03:20:16;10.40;99.90
23471;DHT22;11908;50.806;4.424;2023-03-14T03:22:42;10.50;99.90
23471;DHT22;11908;50.806;4.424;2023-03-14T03:25:08;10.30;99.90
23471;DHT22;11908;50.806;4.424;2023-03-14T03:27:35;10.30;99.90
23471;DHT22;11908;50.806;4.424;2023-03-14T03:30:02;10.30;99.90
23471;DHT22;11908;50.806;4.424;2023-03-14T03:32:28;10.30;99.90
23471;DHT22;11908;50.806;4.424;2023-03-14T03:34:53;10.40;99.90
23471;DHT22;11908;50.806;4.424;2023-03-14T03:37:19;10.40;99.90
23471;DHT22;11908;50.806;4.424;2023-03-14T03:39:45;10.40;99.90
23471;DHT22;11908;50.806;4.424;2023-03-14T03:42:10;10.40;99.90
23471;DHT22;11908;50.806;4.424;2023-03-14T03:44:36;10.40;99.90
23471;DHT22;11908;50.806;4.424;2023-03-14T03:47:02;10.40;99.90
23471;DHT22;11908;50.806;4.424;2023-03-14T03:49:32;10.30;99.90
23471;DHT22;11908;50.806;4.424;2023-03-14T03:51:58;10.30;99.90
23471;DHT22;11908;50.806;4.424;2023-03-14T03:54:24;10.40;99.90
23471;DHT22;11908;50.806;4.424;2023-03-14T03:56:50;10.40;99.90
23471;DHT22;11908;50.806;4.424;2023-03-14T03:59:16;10.30;99.90
23471;DHT22;11908;50.806;4.424;2023-03-14T04:01:41;10.30;99.90
23471;DHT22;11908;50.806;4.424;2023-03-14T04:04:07;10.20;99.90
23471;DHT22;11908;50.806;4.424;2023-03-14T04:06:33;10.30;99.90
23471;DHT22;11908;50.806;4.424;2023-03-14T04:08:59;10.30;99.90
23471;DHT22;11908;50.806;4.424;2023-03-14T04:11:24;10.20;99.90
23471;DHT22;11908;50.806;4.424;2023-03-14T04:13:50;10.30;99.90
23471;DHT22;11908;50.806;4.424;2023-03-14T04:16:24;10.30;99.90
23471;DHT22;11908;50.806;4.424;2023-03-14T04:18:50;10.30;99.90
23471;DHT22;11908;50.806;4.424;2023-03-14T04:21:16;10.30;99.90
23471;DHT22;11908;50.806;4.424;2023-03-14T04:23:42;10.20;99.90
23471;DHT22;11908;50.806;4.424;2023-03-14T04:26:08;10.20;99.90
23471;DHT22;11908;50.806;4.424;2023-03-14T04:28:33;10.20;99.90
23471;DHT22;11908;50.806;4.424;2023-03-14T04:31:13;10.20;99.90
23471;DHT22;11908;50.806;4.424;2023-03-14T04:33:39;10.20;99.90
23471;DHT22;11908;50.806;4.424;2023-03-14T04:36:06;10.20;99.90
23471;DHT22;11908;50.806;4.424;2023-03-14T04:38:32;10.20;99.90
23471;DHT22;11908;50.806;4.424;2023-03-14T04:40:58;10.30;99.90
23471;DHT22;11908;50.806;4.424;2023-03-14T04:43:25;10.30;99.90
23471;DHT22;11908;50.806;4.424;2023-03-14T04:45:53;10.30;99.90
23471;DHT22;11908;50.806;4.424;2023-03-14T04:48:18;10.40;99.90
23471;DHT22;11908;50.806;4.424;2023-03-14T04:50:45;10.40;99.90
23471;DHT22;11908;50.806;4.424;2023-03-14T04:53:12;10.50;99.90
23471;DHT22;11908;50.806;4.424;2023-03-14T04:55:37;10.50;99.90
23471;DHT22;11908;50.806;4.424;2023-03-14T04:58:03;10.50;99.90
23471;DHT22;11908;50.806;4.424;2023-03-14T05:00:29;10.40;99.90
23471;DHT22;11908;50.806;4.424;2023-03-14T05:02:54;10.40;99.90
23471;DHT22;11908;50.806;4.424;2023-03-14T05:05:20;10.40;99.90
23471;DHT22;11908;50.806;4.424;2023-03-14T05:07:46;10.50;99.90
23471;DHT22;11908;50.806;4.424;2023-03-14T05:10:12;10.40;99.90
23471;DHT22;11908;50.806;4.424;2023-03-14T05:12:38;10.50;99.90
23471;DHT22;11908;50.806;4.424;2023-03-14T05:15:04;10.50;99.90
23471;DHT22;11908;50.806;4.424;2023-03-14T05:17:32;10.50;99.90
23471;DHT22;11908;50.806;4.424;2023-03-14T05:19:58;10.50;99.90
23471;DHT22;11908;50.806;4.424;2023-03-14T05:22:24;10.50;99.90
23471;DHT22;11908;50.806;4.424;2023-03-14T05:24:49;10.40;99.90
23471;DHT22;11908;50.806;4.424;2023-03-14T05:27:15;10.50;99.90
23471;DHT22;11908;50.806;4.424;2023-03-14T05:29:41;10.50;99.90
23471;DHT22;11908;50.806;4.424;2023-03-14T05:32:07;10.50;99.90
23471;DHT22;11908;50.806;4.424;2023-03-14T05:34:32;10.50;99.90
23471;DHT22;11908;50.806;4.424;2023-03-14T05:36:58;10.50;99.90
23471;DHT22;11908;50.806;4.424;2023-03-14T05:39:24;10.50;99.90
23471;DHT22;11908;50.806;4.424;2023-03-14T05:41:50;10.60;99.90
23471;DHT22;11908;50.806;4.424;2023-03-14T05:44:16;10.50;99.90
23471;DHT22;11908;50.806;4.424;2023-03-14T05:46:42;10.40;99.90
23471;DHT22;11908;50.806;4.424;2023-03-14T05:49:07;10.40;99.90
23471;DHT22;11908;50.806;4.424;2023-03-14T05:51:33;10.50;99.90
23471;DHT22;11908;50.806;4.424;2023-03-14T05:53:59;10.40;99.90
23471;DHT22;11908;50.806;4.424;2023-03-14T05:56:24;10.40;99.90
23471;DHT22;11908;50.806;4.424;2023-03-14T05:58:50;10.40;99.90
23471;DHT22;11908;50.806;4.424;2023-03-14T06:01:16;10.50;99.90
23471;DHT22;11908;50.806;4.424;2023-03-14T06:03:41;10.50;99.90
23471;DHT22;11908;50.806;4.424;2023-03-14T06:06:07;10.50;99.90
23471;DHT22;11908;50.806;4.424;2023-03-14T06:08:33;10.60;99.90
23471;DHT22;11908;50.806;4.424;2023-03-14T06:10:59;10.50;99.90
23471;DHT22;11908;50.806;4.424;2023-03-14T06:13:27;10.60;99.90
23471;DHT22;11908;50.806;4.424;2023-03-14T06:15:53;10.70;99.90
23471;DHT22;11908;50.806;4.424;2023-03-14T06:18:19;10.60;99.90
23471;DHT22;11908;50.806;4.424;2023-03-14T06:20:44;10.70;99.90
23471;DHT22;11908;50.806;4.424;2023-03-14T06:23:10;10.60;99.90
23471;DHT22;11908;50.806;4.424;2023-03-14T06:25:36;10.60;99.90
23471;DHT22;11908;50.806;4.424;2023-03-14T06:28:02;10.60;99.90
23471;DHT22;11908;50.806;4.424;2023-03-14T06:30:28;10.70;99.90
23471;DHT22;11908;50.806;4.424;2023-03-14T06:32:54;10.70;99.90
23471;DHT22;11908;50.806;4.424;2023-03-14T06:35:21;10.70;99.90
23471;DHT22;11908;50.806;4.424;2023-03-14T06:37:46;10.70;99.90
23471;DHT22;11908;50.806;4.424;2023-03-14T06:40:13;10.70;99.90
23471;DHT22;11908;50.806;4.424;2023-03-14T06:42:43;10.60;99.90
23471;DHT22;11908;50.806;4.424;2023-03-14T06:45:09;10.50;99.90
23471;DHT22;11908;50.806;4.424;2023-03-14T06:47:35;10.50;99.90
23471;DHT22;11908;50.806;4.424;2023-03-14T06:50:01;10.60;99.90
23471;DHT22;11908;50.806;4.424;2023-03-14T06:52:27;10.50;99.90
23471;DHT22;11908;50.806;4.424;2023-03-14T06:54:52;10.60;99.90
23471;DHT22;11908;50.806;4.424;2023-03-14T06:57:18;10.50;99.90
23471;DHT22;11908;50.806;4.424;2023-03-14T06:59:44;10.10;99.90
23471;DHT22;11908;50.806;4.424;2023-03-14T07:02:12;10.00;99.90
23471;DHT22;11908;50.806;4.424;2023-03-14T07:04:39;9.70;99.90
23471;DHT22;11908;50.806;4.424;2023-03-14T07:07:04;9.50;99.90
23471;DHT22;11908;50.806;4.424;2023-03-14T07:09:31;9.30;99.90
23471;DHT22;11908;50.806;4.424;2023-03-14T07:11:57;9.20;99.90
23471;DHT22;11908;50.806;4.424;2023-03-14T07:14:23;9.10;99.90
23471;DHT22;11908;50.806;4.424;2023-03-14T07:16:48;9.10;99.90
23471;DHT22;11908;50.806;4.424;2023-03-14T07:19:14;8.90;99.90
23471;DHT22;11908;50.806;4.424;2023-03-14T07:21:40;8.90;99.90
23471;DHT22;11908;50.806;4.424;2023-03-14T07:24:05;8.70;99.90
23471;DHT22;11908;50.806;4.424;2023-03-14T07:26:31;8.60;99.90
23471;DHT22;11908;50.806;4.424;2023-03-14T07:28:57;8.50;99.90
23471;DHT22;11908;50.806;4.424;2023-03-14T07:31:23;8.50;99.90
23471;DHT22;11908;50.806;4.424;2023-03-14T07:33:48;8.50;99.90
23471;DHT22;11908;50.806;4.424;2023-03-14T07:36:14;8.40;99.90
23471;DHT22;11908;50.806;4.424;2023-03-14T07:38:40;8.40;99.90
23471;DHT22;11908;50.806;4.424;2023-03-14T07:41:06;8.40;99.90
23471;DHT22;11908;50.806;4.424;2023-03-14T07:43:32;8.40;99.90
23471;DHT22;11908;50.806;4.424;2023-03-14T07:45:58;8.50;99.90
23471;DHT22;11908;50.806;4.424;2023-03-14T07:48:24;8.40;99.90
23471;DHT22;11908;50.806;4.424;2023-03-14T07:50:52;8.50;99.90
23471;DHT22;11908;50.806;4.424;2023-03-14T07:53:19;8.50;99.90
23471;DHT22;11908;50.806;4.424;2023-03-14T07:55:45;8.60;99.90
23471;DHT22;11908;50.806;4.424;2023-03-14T07:58:12;8.60;99.90
23471;DHT22;11908;50.806;4.424;2023-03-14T08:00:37;8.60;99.90
23471;DHT22;11908;50.806;4.424;2023-03-14T08:03:03;8.60;99.90
23471;DHT22;11908;50.806;4.424;2023-03-14T08:05:29;8.60;99.90
23471;DHT22;11908;50.806;4.424;2023-03-14T08:07:55;8.60;99.90
23471;DHT22;11908;50.806;4.424;2023-03-14T08:10:20;8.60;99.90
23471;DHT22;11908;50.806;4.424;2023-03-14T08:12:46;8.60;99.90
23471;DHT22;11908;50.806;4.424;2023-03-14T08:15:12;8.60;99.90
23471;DHT22;11908;50.806;4.424;2023-03-14T08:17:38;8.60;99.90
23471;DHT22;11908;50.806;4.424;2023-03-14T08:20:04;8.60;99.90
23471;DHT22;11908;50.806;4.424;2023-03-14T08:22:34;8.50;99.90
23471;DHT22;11908;50.806;4.424;2023-03-14T08:24:59;8.50;99.90
23471;DHT22;11908;50.806;4.424;2023-03-14T08:27:25;8.50;99.90
23471;DHT22;11908;50.806;4.424;2023-03-14T08:29:51;8.50;99.90
23471;DHT22;11908;50.806;4.424;2023-03-14T08:32:16;8.50;99.90
23471;DHT22;11908;50.806;4.424;2023-03-14T08:34:42;8.60;99.90
23471;DHT22;11908;50.806;4.424;2023-03-14T08:37:08;8.70;99.90
23471;DHT22;11908;50.806;4.424;2023-03-14T08:39:33;8.70;99.90
23471;DHT22;11908;50.806;4.424;2023-03-14T08:41:59;8.50;99.90
23471;DHT22;11908;50.806;4.424;2023-03-14T08:44:25;8.50;99.90
23471;DHT22;11908;50.806;4.424;2023-03-14T08:46:50;8.30;99.90
23471;DHT22;11908;50.806;4.424;2023-03-14T08:49:16;8.20;99.90
23471;DHT22;11908;50.806;4.424;2023-03-14T08:51:42;8.10;99.90
23471;DHT22;11908;50.806;4.424;2023-03-14T08:54:10;8.10;99.90
23471;DHT22;11908;50.806;4.424;2023-03-14T08:56:36;8.00;99.90
23471;DHT22;11908;50.806;4.424;2023-03-14T08:59:03;8.00;99.90
23471;DHT22;11908;50.806;4.424;2023-03-14T09:01:29;7.90;99.90
23471;DHT22;11908;50.806;4.424;2023-03-14T09:03:55;7.90;99.90
23471;DHT22;11908;50.806;4.424;2023-03-14T09:06:21;7.80;99.90
23471;DHT22;11908;50.806;4.424;2023-03-14T09:08:47;7.70;99.90
23471;DHT22;11908;50.806;4.424;2023-03-14T09:11:13;7.80;99.90
23471;DHT22;11908;50.806;4.424;2023-03-14T09:13:39;7.80;99.90
23471;DHT22;11908;50.806;4.424;2023-03-14T09:16:05;7.90;99.90
23471;DHT22;11908;50.806;4.424;2023-03-14T09:18:31;7.90;99.90
23471;DHT22;11908;50.806;4.424;2023-03-14T09:20:57;7.90;99.90
23471;DHT22;11908;50.806;4.424;2023-03-14T09:23:23;8.00;99.90
23471;DHT22;11908;50.806;4.424;2023-03-14T09:25:48;8.00;99.90
23471;DHT22;11908;50.806;4.424;2023-03-14T09:28:14;8.00;99.90
23471;DHT22;11908;50.806;4.424;2023-03-14T09:30:40;8.10;99.90
23471;DHT22;11908;50.806;4.424;2023-03-14T09:33:05;8.10;99.90
23471;DHT22;11908;50.806;4.424;2023-03-14T09:35:33;7.90;99.90
23471;DHT22;11908;50.806;4.424;2023-03-14T09:37:59;7.90;99.90
23471;DHT22;11908;50.806;4.424;2023-03-14T09:40:30;8.00;99.90
23471;DHT22;11908;50.806;4.424;2023-03-14T09:42:57;8.00;99.90
23471;DHT22;11908;50.806;4.424;2023-03-14T09:45:36;8.00;99.90
23471;DHT22;11908;50.806;4.424;2023-03-14T09:48:03;8.00;99.90
23471;DHT22;11908;50.806;4.424;2023-03-14T09:50:42;8.10;99.90
23471;DHT22;11908;50.806;4.424;2023-03-14T09:53:16;8.10;99.90
23471;DHT22;11908;50.806;4.424;2023-03-14T09:55:44;7.90;99.90
23471;DHT22;11908;50.806;4.424;2023-03-14T09:58:13;8.00;99.90
23471;DHT22;11908;50.806;4.424;2023-03-14T10:00:39;8.10;99.90
23471;DHT22;11908;50.806;4.424;2023-03-14T10:05:41;8.10;99.90
23471;DHT22;11908;50.806;4.424;2023-03-14T10:08:10;8.30;99.90
23471;DHT22;11908;50.806;4.424;2023-03-14T10:10:36;8.20;99.90
23471;DHT22;11908;50.806;4.424;2023-03-14T10:13:31;8.20;99.90
23471;DHT22;11908;50.806;4.424;2023-03-14T10:16:00;8.20;99.90
23471;DHT22;11908;50.806;4.424;2023-03-14T10:18:29;8.30;99.90
23471;DHT22;11908;50.806;4.424;2023-03-14T10:21:09;8.40;99.90
23471;DHT22;11908;50.806;4.424;2023-03-14T10:23:42;8.60;99.90
23471;DHT22;11908;50.806;4.424;2023-03-14T10:26:33;8.70;99.90
23471;DHT22;11908;50.806;4.424;2023-03-14T10:29:08;8.70;99.90
23471;DHT22;11908;50.806;4.424;2023-03-14T10:31:54;8.50;99.90
23471;DHT22;11908;50.806;4.424;2023-03-14T10:34:35;8.40;99.90
23471;DHT22;11908;50.806;4.424;2023-03-14T10:37:24;8.20;99.90
23471;DHT22;11908;50.806;4.424;2023-03-14T10:40:02;8.10;99.90
23471;DHT22;11908;50.806;4.424;2023-03-14T10:42:33;8.00;99.90
23471;DHT22;11908;50.806;4.424;2023-03-14T10:45:31;8.00;99.90
23471;DHT22;11908;50.806;4.424;2023-03-14T10:48:13;7.90;99.90
23471;DHT22;11908;50.806;4.424;2023-03-14T10:51:04;7.80;99.90
23471;DHT22;11908;50.806;4.424;2023-03-14T10:53:58;7.90;99.90
23471;DHT22;11908;50.806;4.424;2023-03-14T10:56:25;8.10;99.90
23471;DHT22;11908;50.806;4.424;2023-03-14T10:58:53;8.00;99.90
23471;DHT22;11908;50.806;4.424;2023-03-14T11:01:59;8.00;99.90
23471;DHT22;11908;50.806;4.424;2023-03-14T11:04:56;8.10;99.90
23471;DHT22;11908;50.806;4.424;2023-03-14T11:07:42;8.00;99.90
23471;DHT22;11908;50.806;4.424;2023-03-14T11:10:35;7.80;99.90
23471;DHT22;11908;50.806;4.424;2023-03-14T11:13:25;7.90;99.90
23471;DHT22;11908;50.806;4.424;2023-03-14T11:21:32;8.10;99.90
23471;DHT22;11908;50.806;4.424;2023-03-14T11:24:14;8.00;99.90
23471;DHT22;11908;50.806;4.424;2023-03-14T11:27:18;8.00;99.90
23471;DHT22;11908;50.806;4.424;2023-03-14T11:34:59;7.90;99.90
23471;DHT22;11908;50.806;4.424;2023-03-14T11:37:36;7.70;99.90
23471;DHT22;11908;50.806;4.424;2023-03-14T11:42:48;7.30;99.90
23471;DHT22;11908;50.806;4.424;2023-03-14T11:45:19;7.10;99.90
23471;DHT22;11908;50.806;4.424;2023-03-14T11:48:05;7.10;99.90
23471;DHT22;11908;50.806;4.424;2023-03-14T11:50:33;7.20;99.90
23471;DHT22;11908;50.806;4.424;2023-03-14T11:53:13;7.30;99.90
23471;DHT22;11908;50.806;4.424;2023-03-14T11:55:42;7.00;99.90
23471;DHT22;11908;50.806;4.424;2023-03-14T11:58:24;6.90;99.90
23471;DHT22;11908;50.806;4.424;2023-03-14T12:00:53;6.80;99.90
23471;DHT22;11908;50.806;4.424;2023-03-14T12:03:38;6.80;99.90
23471;DHT22;11908;50.806;4.424;2023-03-14T12:08:57;6.90;99.90
23471;DHT22;11908;50.806;4.424;2023-03-14T12:11:59;6.90;99.90
23471;DHT22;11908;50.806;4.424;2023-03-14T12:14:27;6.90;99.90
23471;DHT22;11908;50.806;4.424;2023-03-14T12:16:56;7.00;99.90
23471;DHT22;11908;50.806;4.424;2023-03-14T12:21:59;6.90;99.90
23471;DHT22;11908;50.806;4.424;2023-03-14T12:24:31;7.00;99.90
23471;DHT22;11908;50.806;4.424;2023-03-14T12:27:00;7.00;99.90
23471;DHT22;11908;50.806;4.424;2023-03-14T12:29:27;7.20;99.90
23471;DHT22;11908;50.806;4.424;2023-03-14T12:34:47;7.40;99.90
23471;DHT22;11908;50.806;4.424;2023-03-14T12:37:41;7.50;99.90
23471;DHT22;11908;50.806;4.424;2023-03-14T12:40:35;7.60;99.90
23471;DHT22;11908;50.806;4.424;2023-03-14T12:43:04;7.70;99.90
23471;DHT22;11908;50.806;4.424;2023-03-14T12:46:08;7.50;99.90
23471;DHT22;11908;50.806;4.424;2023-03-14T12:48:35;7.40;99.90
23471;DHT22;11908;50.806;4.424;2023-03-14T12:51:04;7.40;99.90
23471;DHT22;11908;50.806;4.424;2023-03-14T13:01:24;7.00;99.90
23471;DHT22;11908;50.806;4.424;2023-03-14T13:03:52;7.10;99.90
23471;DHT22;11908;50.806;4.424;2023-03-14T13:09:34;7.10;99.90
23471;DHT22;11908;50.806;4.424;2023-03-14T13:12:10;7.30;99.90
23471;DHT22;11908;50.806;4.424;2023-03-14T13:14:41;7.40;99.90
23471;DHT22;11908;50.806;4.424;2023-03-14T13:17:12;7.30;99.90
23471;DHT22;11908;50.806;4.424;2023-03-14T13:19:39;7.50;99.90
23471;DHT22;11908;50.806;4.424;2023-03-14T13:22:12;7.60;99.90
23471;DHT22;11908;50.806;4.424;2023-03-14T13:24:40;7.70;99.90
23471;DHT22;11908;50.806;4.424;2023-03-14T13:27:18;7.70;99.90
23471;DHT22;11908;50.806;4.424;2023-03-14T13:29:48;7.70;99.90
23471;DHT22;11908;50.806;4.424;2023-03-14T13:32:19;7.70;99.90
23471;DHT22;11908;50.806;4.424;2023-03-14T13:34:45;7.60;99.90
23471;DHT22;11908;50.806;4.424;2023-03-14T13:37:17;7.50;99.90
23471;DHT22;11908;50.806;4.424;2023-03-14T13:39:52;7.50;99.90
23471;DHT22;11908;50.806;4.424;2023-03-14T13:42:18;7.40;99.90
23471;DHT22;11908;50.806;4.424;2023-03-14T13:44:45;7.40;99.90
23471;DHT22;11908;50.806;4.424;2023-03-14T13:47:15;7.60;99.90
23471;DHT22;11908;50.806;4.424;2023-03-14T13:49:42;7.60;99.90
23471;DHT22;11908;50.806;4.424;2023-03-14T13:52:30;7.80;99.90
23471;DHT22;11908;50.806;4.424;2023-03-14T13:54:57;8.00;99.90
23471;DHT22;11908;50.806;4.424;2023-03-14T13:57:24;8.20;99.90
23471;DHT22;11908;50.806;4.424;2023-03-14T14:00:01;8.30;99.90
23471;DHT22;11908;50.806;4.424;2023-03-14T14:02:33;8.20;99.90
23471;DHT22;11908;50.806;4.424;2023-03-14T14:05:01;8.20;99.90
23471;DHT22;11908;50.806;4.424;2023-03-14T14:07:26;8.30;99.90
23471;DHT22;11908;50.806;4.424;2023-03-14T14:09:54;8.30;99.90
23471;DHT22;11908;50.806;4.424;2023-03-14T14:15:04;8.10;99.90
23471;DHT22;11908;50.806;4.424;2023-03-14T14:17:35;8.30;99.90
23471;DHT22;11908;50.806;4.424;2023-03-14T14:20:07;8.40;99.90
23471;DHT22;11908;50.806;4.424;2023-03-14T14:22:34;8.40;99.90
23471;DHT22;11908;50.806;4.424;2023-03-14T14:25:01;8.40;99.90
23471;DHT22;11908;50.806;4.424;2023-03-14T14:27:37;8.40;99.90
23471;DHT22;11908;50.806;4.424;2023-03-14T14:30:24;8.40;99.90
23471;DHT22;11908;50.806;4.424;2023-03-14T14:32:51;8.50;99.90
23471;DHT22;11908;50.806;4.424;2023-03-14T14:35:32;8.50;99.90
23471;DHT22;11908;50.806;4.424;2023-03-14T14:37:58;8.20;99.90
23471;DHT22;11908;50.806;4.424;2023-03-14T14:40:27;8.00;99.90
23471;DHT22;11908;50.806;4.424;2023-03-14T14:42:53;7.80;99.90
23471;DHT22;11908;50.806;4.424;2023-03-14T14:45:22;7.90;99.90
23471;DHT22;11908;50.806;4.424;2023-03-14T14:48:10;7.90;99.90
23471;DHT22;11908;50.806;4.424;2023-03-14T14:50:58;7.80;99.90
23471;DHT22;11908;50.806;4.424;2023-03-14T14:53:39;7.70;99.90
23471;DHT22;11908;50.806;4.424;2023-03-14T14:56:17;7.60;99.90
23471;DHT22;11908;50.806;4.424;2023-03-14T14:58:45;7.20;99.90
23471;DHT22;11908;50.806;4.424;2023-03-14T15:03:46;6.70;99.90
23471;DHT22;11908;50.806;4.424;2023-03-14T15:06:14;6.40;99.90
23471;DHT22;11908;50.806;4.424;2023-03-14T15:08:42;6.20;99.90
23471;DHT22;11908;50.806;4.424;2023-03-14T15:11:22;6.10;99.90
23471;DHT22;11908;50.806;4.424;2023-03-14T15:13:50;6.00;99.90
23471;DHT22;11908;50.806;4.424;2023-03-14T15:16:18;6.20;99.90
23471;DHT22;11908;50.806;4.424;2023-03-14T15:18:47;6.30;99.90
23471;DHT22;11908;50.806;4.424;2023-03-14T15:21:15;6.50;99.90
23471;DHT22;11908;50.806;4.424;2023-03-14T15:23:41;6.60;99.90
23471;DHT22;11908;50.806;4.424;2023-03-14T15:26:16;6.80;99.90
23471;DHT22;11908;50.806;4.424;2023-03-14T15:28:43;7.00;99.90
23471;DHT22;11908;50.806;4.424;2023-03-14T15:31:10;7.20;99.90
23471;DHT22;11908;50.806;4.424;2023-03-14T15:33:36;7.50;99.90
23471;DHT22;11908;50.806;4.424;2023-03-14T15:36:13;7.70;99.90
23471;DHT22;11908;50.806;4.424;2023-03-14T15:38:40;7.90;99.90
23471;DHT22;11908;50.806;4.424;2023-03-14T15:41:06;8.10;99.90
23471;DHT22;11908;50.806;4.424;2023-03-14T15:43:31;8.20;99.90
23471;DHT22;11908;50.806;4.424;2023-03-14T15:45:57;8.40;99.90
23471;DHT22;11908;50.806;4.424;2023-03-14T15:48:23;8.60;99.90
23471;DHT22;11908;50.806;4.424;2023-03-14T15:50:49;8.70;99.90
23471;DHT22;11908;50.806;4.424;2023-03-14T15:53:15;8.70;99.90
23471;DHT22;11908;50.806;4.424;2023-03-14T15:55:40;8.70;99.90
23471;DHT22;11908;50.806;4.424;2023-03-14T15:58:07;8.70;99.90
23471;DHT22;11908;50.806;4.424;2023-03-14T16:00:34;8.70;99.90
23471;DHT22;11908;50.806;4.424;2023-03-14T16:03:03;8.80;99.90
23471;DHT22;11908;50.806;4.424;2023-03-14T16:05:28;8.80;99.90
23471;DHT22;11908;50.806;4.424;2023-03-14T16:07:54;8.60;99.90
23471;DHT22;11908;50.806;4.424;2023-03-14T16:10:20;8.30;99.90
23471;DHT22;11908;50.806;4.424;2023-03-14T16:12:45;8.30;99.90
23471;DHT22;11908;50.806;4.424;2023-03-14T16:15:11;8.20;99.90
23471;DHT22;11908;50.806;4.424;2023-03-14T16:17:37;8.10;99.90
23471;DHT22;11908;50.806;4.424;2023-03-14T16:20:05;8.10;99.90
23471;DHT22;11908;50.806;4.424;2023-03-14T16:22:31;8.00;99.90
23471;DHT22;11908;50.806;4.424;2023-03-14T16:25:01;7.90;99.90
23471;DHT22;11908;50.806;4.424;2023-03-14T16:27:27;7.90;99.90
23471;DHT22;11908;50.806;4.424;2023-03-14T16:29:52;7.80;99.90
23471;DHT22;11908;50.806;4.424;2023-03-14T16:32:18;7.80;99.90
23471;DHT22;11908;50.806;4.424;2023-03-14T16:34:44;7.70;99.90
23471;DHT22;11908;50.806;4.424;2023-03-14T16:37:09;7.70;99.90
23471;DHT22;11908;50.806;4.424;2023-03-14T16:39:35;7.50;99.90